createdAt,value
2018-06-24T00:00:12.171Z,95153.28
2018-06-24T00:02:40.945Z,95150.81
2018-06-24T00:05:09.680Z,95150.09
2018-06-24T00:07:38.378Z,95148.98
2018-06-24T00:10:07.139Z,95152.43
2018-06-24T00:12:35.868Z,95147.46
2018-06-24T00:15:05.301Z,95145.13
2018-06-24T00:17:34.057Z,95143.31
2018-06-24T00:20:02.894Z,95146.95
2018-06-24T00:22:31.985Z,95149.65
2018-06-24T00:25:00.749Z,95154.86
2018-06-24T00:27:29.511Z,95153.14
2018-06-24T00:29:58.282Z,95155.67
2018-06-24T00:32:27.038Z,95153.34
2018-06-24T00:34:55.787Z,95152.28
2018-06-24T00:37:24.486Z,95150.46
2018-06-24T00:39:53.210Z,95148.78
2018-06-24T00:42:21.922Z,95147.27
2018-06-24T00:44:50.663Z,95143.83
2018-06-24T00:47:19.387Z,95143.25
2018-06-24T00:49:48.144Z,95150.65
2018-06-24T00:52:16.896Z,95149.84
2018-06-24T00:54:45.625Z,95155.41
2018-06-24T00:57:14.361Z,95152.48
2018-06-24T00:59:54.277Z,95155.22
2018-06-24T01:02:22.973Z,95148.03
2018-06-24T01:04:51.718Z,95146.64
2018-06-24T01:07:20.453Z,95140.78
2018-06-24T01:09:49.244Z,95138.19
2018-06-24T01:12:17.921Z,95133.00
2018-06-24T01:14:46.697Z,95134.86
2018-06-24T01:17:15.425Z,95134.27
2018-06-24T01:19:44.215Z,95132.27
2018-06-24T01:22:12.974Z,95134.94
2018-06-24T01:24:41.702Z,95134.80
2018-06-24T01:27:10.473Z,95137.97
2018-06-24T01:29:39.185Z,95137.67
2018-06-24T01:32:07.940Z,95137.67
2018-06-24T01:34:36.652Z,95139.39
2018-06-24T01:37:05.372Z,95134.25
2018-06-24T01:39:34.084Z,95134.33
2018-06-24T01:42:02.794Z,95132.33
2018-06-24T01:44:31.571Z,95133.31
2018-06-24T01:47:00.305Z,95140.30
2018-06-24T01:49:29.075Z,95134.83
2018-06-24T01:51:57.855Z,95133.75
2018-06-24T01:54:26.626Z,95135.57
2018-06-24T01:56:55.312Z,95133.24
2018-06-24T01:59:24.150Z,95141.21
2018-06-24T02:01:53.119Z,95137.19
2018-06-24T02:04:22.069Z,95137.39
2018-06-24T02:06:51.036Z,95138.50
2018-06-24T02:09:19.831Z,95140.56
2018-06-24T02:11:48.532Z,95136.07
2018-06-24T02:14:17.272Z,95132.05
2018-06-24T02:16:46.048Z,95130.50
2018-06-24T02:19:14.763Z,95127.80
2018-06-24T02:21:43.483Z,95131.43
2018-06-24T02:24:12.184Z,95126.27
2018-06-24T02:26:40.903Z,95124.37
2018-06-24T02:29:09.651Z,95126.16
2018-06-24T02:31:38.401Z,95121.64
2018-06-24T02:34:07.182Z,95133.38
2018-06-24T02:36:35.922Z,95128.14
2018-06-24T02:39:06.630Z,95131.27
2018-06-24T02:41:35.428Z,95131.16
2018-06-24T02:44:04.572Z,95132.27
2018-06-24T02:46:33.367Z,95129.55
2018-06-24T02:49:02.110Z,95127.40
2018-06-24T02:51:30.898Z,95126.59
2018-06-24T02:53:59.619Z,95127.70
2018-06-24T02:56:28.381Z,95129.65
2018-06-24T02:58:57.136Z,95124.28
2018-06-24T03:01:25.894Z,95116.70
2018-06-24T03:03:54.712Z,95113.34
2018-06-24T03:06:23.415Z,95121.76
2018-06-24T03:08:52.113Z,95126.01
2018-06-24T03:11:20.802Z,95124.59
2018-06-24T03:13:49.515Z,95126.91
2018-06-24T03:16:18.245Z,95127.09
2018-06-24T03:18:46.923Z,95132.97
2018-06-24T03:21:15.715Z,95133.59
2018-06-24T03:23:44.434Z,95135.30
2018-06-24T03:26:13.218Z,95136.69
2018-06-24T03:28:41.958Z,95139.33
2018-06-24T03:31:10.755Z,95139.05
2018-06-24T03:33:39.584Z,95138.62
2018-06-24T03:36:08.411Z,95140.23
2018-06-24T03:38:37.142Z,95139.94
2018-06-24T03:41:05.969Z,95141.86
2018-06-24T03:43:34.712Z,95145.17
2018-06-24T03:46:03.415Z,95142.95
2018-06-24T03:48:32.115Z,95146.59
2018-06-24T03:51:00.814Z,95154.42
2018-06-24T03:53:29.520Z,95148.45
2018-06-24T03:55:58.230Z,95153.19
2018-06-24T03:58:26.923Z,95153.56
2018-06-24T04:00:55.652Z,95150.09
2018-06-24T04:03:24.436Z,95153.30
2018-06-24T04:05:53.191Z,95155.33
2018-06-24T04:08:21.943Z,95155.91
2018-06-24T04:10:50.660Z,95157.66
2018-06-24T04:13:19.447Z,95157.66
2018-06-24T04:15:48.182Z,95154.72
2018-06-24T04:18:16.943Z,95151.58
2018-06-24T04:20:45.823Z,95152.80
2018-06-24T04:23:14.686Z,95153.10
2018-06-24T04:25:43.477Z,95150.53
2018-06-24T04:28:12.324Z,95152.92
2018-06-24T04:30:41.102Z,95151.50
2018-06-24T04:33:09.855Z,95153.84
2018-06-24T04:35:38.556Z,95152.89
2018-06-24T04:38:07.267Z,95158.90
2018-06-24T04:40:36.042Z,95156.23
2018-06-24T04:43:04.778Z,95150.45
2018-06-24T04:45:33.526Z,95154.25
2018-06-24T04:48:02.200Z,95151.77
2018-06-24T04:50:31.134Z,95151.67
2018-06-24T04:52:59.834Z,95146.53
2018-06-24T04:55:28.635Z,95145.05
2018-06-24T04:57:57.347Z,95147.69
2018-06-24T05:00:26.116Z,95142.11
2018-06-24T05:02:54.807Z,95144.70
2018-06-24T05:05:23.512Z,95141.34
2018-06-24T05:07:52.270Z,95143.98
2018-06-24T05:10:20.996Z,95141.58
2018-06-24T05:12:49.666Z,95144.20
2018-06-24T05:15:18.435Z,95143.72
2018-06-24T05:17:47.147Z,95141.84
2018-06-24T05:20:15.943Z,95137.58
2018-06-24T05:22:44.727Z,95136.16
2018-06-24T05:25:13.476Z,95145.74
2018-06-24T05:27:42.232Z,95139.63
2018-06-24T05:30:11.026Z,95140.48
2018-06-24T05:32:39.766Z,95134.88
2018-06-24T05:35:08.929Z,95138.36
2018-06-24T05:41:04.394Z,95142.84
2018-06-24T05:43:33.127Z,95141.86
2018-06-24T05:46:01.861Z,95138.41
2018-06-24T05:48:30.612Z,95140.78
2018-06-24T05:50:59.359Z,95138.90
2018-06-24T05:53:28.094Z,95143.71
2018-06-24T05:55:57.168Z,95147.47
2018-06-24T05:58:25.971Z,95145.30
2018-06-24T06:00:55.153Z,95137.30
2018-06-24T06:03:24.366Z,95146.02
2018-06-24T06:05:53.127Z,95143.78
2018-06-24T06:08:21.845Z,95150.69
2018-06-24T06:10:50.582Z,95149.16
2018-06-24T06:13:19.263Z,95144.82
2018-06-24T06:15:48.034Z,95144.66
2018-06-24T06:18:17.825Z,95147.81
2018-06-24T06:20:46.631Z,95142.73
2018-06-24T06:23:15.352Z,95140.14
2018-06-24T06:25:44.436Z,95136.14
2018-06-24T06:28:13.183Z,95135.38
2018-06-24T06:30:42.061Z,95139.09
2018-06-24T06:33:10.768Z,95130.69
2018-06-24T06:35:39.480Z,95129.19
2018-06-24T06:38:08.617Z,95137.13
2018-06-24T06:40:37.319Z,95138.73
2018-06-24T06:43:06.218Z,95133.66
2018-06-24T06:45:35.037Z,95130.48
2018-06-24T06:48:04.196Z,95132.27
2018-06-24T06:50:32.910Z,95132.31
2018-06-24T06:53:01.712Z,95135.84
2018-06-24T06:55:30.476Z,95129.13
2018-06-24T06:57:59.190Z,95132.61
2018-06-24T07:00:27.965Z,95138.08
2018-06-24T07:02:56.736Z,95136.64
2018-06-24T07:05:25.493Z,95132.20
2018-06-24T07:07:54.199Z,95136.70
2018-06-24T07:10:22.994Z,95136.39
2018-06-24T07:12:53.395Z,95130.70
2018-06-24T07:15:22.215Z,95128.69
2018-06-24T07:17:50.925Z,95127.18
2018-06-24T07:20:19.663Z,95121.19
2018-06-24T07:22:48.363Z,95124.39
2018-06-24T07:25:17.154Z,95122.03
2018-06-24T07:27:45.926Z,95122.41
2018-06-24T07:30:14.870Z,95120.99
2018-06-24T07:32:43.573Z,95117.45
2018-06-24T07:35:12.360Z,95117.02
2018-06-24T07:37:41.083Z,95118.31
2018-06-24T07:40:09.803Z,95116.10
2018-06-24T07:42:38.514Z,95125.63
2018-06-24T07:45:07.222Z,95125.74
2018-06-24T07:47:35.926Z,95122.59
2018-06-24T07:50:05.128Z,95126.52
2018-06-24T07:52:33.777Z,95121.14
2018-06-24T07:55:02.529Z,95120.70
2018-06-24T07:57:31.486Z,95117.53
2018-06-24T08:00:00.250Z,95116.92
2018-06-24T08:02:28.982Z,95115.34
2018-06-24T08:04:57.714Z,95121.07
2018-06-24T08:07:26.475Z,95125.53
2018-06-24T08:09:55.190Z,95123.41
2018-06-24T08:12:23.965Z,95116.55
2018-06-24T08:14:52.654Z,95118.62
2018-06-24T08:17:21.610Z,95111.55
2018-06-24T08:19:50.415Z,95113.92
2018-06-24T08:22:19.144Z,95119.45
2018-06-24T08:24:47.864Z,95125.53
2018-06-24T08:27:16.749Z,95128.31
2018-06-24T08:29:45.528Z,95130.06
2018-06-24T08:32:14.373Z,95135.44
2018-06-24T08:34:43.111Z,95133.83
2018-06-24T08:37:12.255Z,95131.56
2018-06-24T08:39:41.220Z,95126.88
2018-06-24T08:42:10.015Z,95124.04
2018-06-24T08:44:38.726Z,95130.44
2018-06-24T08:47:07.838Z,95121.82
2018-06-24T08:49:36.771Z,95121.47
2018-06-24T08:52:05.707Z,95126.03
2018-06-24T08:54:34.408Z,95125.27
2018-06-24T08:57:03.063Z,95118.94
2018-06-24T08:59:31.842Z,95118.89
2018-06-24T09:02:00.577Z,95119.26
2018-06-24T09:04:29.367Z,95119.98
2018-06-24T09:06:58.126Z,95116.95
2018-06-24T09:09:27.085Z,95113.53
2018-06-24T09:11:55.941Z,95109.27
2018-06-24T09:14:24.719Z,95112.75
2018-06-24T09:16:53.500Z,95108.47
2018-06-24T09:19:22.288Z,95106.83
2018-06-24T09:21:50.995Z,95106.91
2018-06-24T09:24:19.729Z,95110.38
2018-06-24T09:26:48.440Z,95102.69
2018-06-24T09:29:17.126Z,95101.52
2018-06-24T09:31:46.247Z,95097.52
2018-06-24T09:34:14.993Z,95095.63
2018-06-24T09:36:43.939Z,95096.69
2018-06-24T09:39:13.503Z,95092.66
2018-06-24T09:41:42.280Z,95106.28
2018-06-24T09:44:11.083Z,95093.37
2018-06-24T09:46:39.850Z,95086.59
2018-06-24T09:49:08.585Z,95084.81
2018-06-24T09:51:37.430Z,95088.00
2018-06-24T09:54:06.513Z,95082.66
2018-06-24T09:56:35.649Z,95087.53
2018-06-24T09:59:04.426Z,95087.53
2018-06-24T10:01:33.204Z,95081.73
2018-06-24T10:04:02.244Z,95080.07
2018-06-24T10:06:32.735Z,95076.56
2018-06-24T10:09:01.592Z,95069.64
2018-06-24T10:11:30.766Z,95071.67
2018-06-24T10:13:59.650Z,95072.31
2018-06-24T10:16:28.796Z,95071.05
2018-06-24T10:18:57.570Z,95067.97
2018-06-24T10:21:26.765Z,95066.41
2018-06-24T10:23:55.789Z,95068.84
2018-06-24T10:26:25.027Z,95068.76
2018-06-24T10:28:53.963Z,95072.45
2018-06-24T10:31:22.909Z,95069.14
2018-06-24T10:33:59.066Z,95070.93
2018-06-24T10:36:27.933Z,95066.44
2018-06-24T10:38:56.827Z,95066.75
2018-06-24T10:41:26.331Z,95068.56
2018-06-24T10:43:55.091Z,95058.06
2018-06-24T10:46:24.469Z,95067.94
2018-06-24T10:48:53.215Z,95061.76
2018-06-24T10:51:21.961Z,95055.92
2018-06-24T10:53:50.875Z,95051.17
2018-06-24T10:56:19.595Z,95054.37
2018-06-24T10:58:48.420Z,95049.93
2018-06-24T11:01:17.167Z,95049.97
2018-06-24T11:03:45.926Z,95057.73
2018-06-24T11:06:14.707Z,95049.64
2018-06-24T11:08:43.536Z,95037.61
2018-06-24T11:11:13.303Z,95040.06
2018-06-24T11:13:48.587Z,95046.04
2018-06-24T11:16:17.415Z,95046.89
2018-06-24T11:18:46.130Z,95043.89
2018-06-24T11:21:14.916Z,95032.83
2018-06-24T11:23:43.666Z,95044.25
2018-06-24T11:26:12.426Z,95025.03
2018-06-24T11:28:41.117Z,95037.52
2018-06-24T11:31:10.075Z,95034.28
2018-06-24T11:33:38.836Z,95036.14
2018-06-24T11:36:07.542Z,95038.08
2018-06-24T11:38:36.269Z,95025.91
2018-06-24T11:41:05.092Z,95022.66
2018-06-24T11:43:33.912Z,95032.38
2018-06-24T11:46:02.706Z,95034.80
2018-06-24T11:48:31.445Z,95025.17
2018-06-24T11:51:00.307Z,95022.48
2018-06-24T11:53:35.462Z,95025.41
2018-06-24T11:56:04.713Z,95025.36
2018-06-24T11:58:33.746Z,95022.66
2018-06-24T12:01:02.848Z,95027.42
2018-06-24T12:03:31.630Z,95028.34
2018-06-24T12:06:00.354Z,95021.72
2018-06-24T12:08:29.055Z,95011.28
2018-06-24T12:10:57.767Z,95020.62
2018-06-24T12:13:26.544Z,95019.06
2018-06-24T12:15:55.328Z,95023.06
2018-06-24T12:18:24.038Z,95013.73
2018-06-24T12:20:53.045Z,95023.62
2018-06-24T12:23:21.742Z,95026.95
2018-06-24T12:25:50.542Z,95012.73
2018-06-24T12:28:19.263Z,95012.65
2018-06-24T12:30:48.060Z,95006.97
2018-06-24T12:33:17.201Z,95002.36
2018-06-24T12:35:45.955Z,95000.53
2018-06-24T12:38:14.780Z,94999.30
2018-06-24T12:40:43.473Z,95003.85
2018-06-24T12:43:12.181Z,94991.81
2018-06-24T12:45:41.278Z,94991.08
2018-06-24T12:48:10.000Z,94989.77
2018-06-24T12:50:38.761Z,94995.44
2018-06-24T12:53:07.542Z,94992.54
2018-06-24T12:55:36.324Z,94991.23
2018-06-24T12:58:05.120Z,95001.44
2018-06-24T13:00:35.572Z,95005.50
2018-06-24T13:03:03.984Z,94989.02
2018-06-24T13:05:33.154Z,94984.02
2018-06-24T13:08:02.198Z,94982.17
2018-06-24T13:10:30.929Z,94976.02
2018-06-24T13:13:00.016Z,94980.29
2018-06-24T13:15:28.827Z,94976.59
2018-06-24T13:17:57.494Z,94977.17
2018-06-24T13:20:26.317Z,94986.23
2018-06-24T13:22:55.922Z,94981.09
2018-06-24T13:25:25.090Z,94981.86
2018-06-24T13:27:53.834Z,94981.03
2018-06-24T13:30:22.927Z,94970.30
2018-06-24T13:32:51.667Z,94976.52
2018-06-24T13:35:20.387Z,94972.56
2018-06-24T13:37:49.066Z,94973.39
2018-06-24T13:40:17.831Z,94966.23
2018-06-24T13:42:46.910Z,94980.72
2018-06-24T13:45:15.738Z,94977.51
2018-06-24T13:47:44.424Z,94974.83
2018-06-24T13:50:13.248Z,94964.69
2018-06-24T13:52:41.954Z,94965.75
2018-06-24T13:55:10.737Z,94964.95
2018-06-24T13:57:39.506Z,94958.25
2018-06-24T14:00:08.400Z,94962.78
2018-06-24T14:02:37.082Z,94964.95
2018-06-24T14:05:06.265Z,94964.42
2018-06-24T14:07:35.041Z,94962.27
2018-06-24T14:10:04.176Z,94958.02
2018-06-24T14:12:32.884Z,94964.43
2018-06-24T14:15:01.642Z,94957.15
2018-06-24T14:17:30.377Z,94944.89
2018-06-24T14:19:59.438Z,94956.09
2018-06-24T14:22:28.264Z,94953.91
2018-06-24T14:24:57.754Z,94954.20
2018-06-24T14:27:26.595Z,94957.94
2018-06-24T14:29:55.359Z,94955.02
2018-06-24T14:32:24.092Z,94952.61
2018-06-24T14:34:52.871Z,94945.41
2018-06-24T14:37:21.848Z,94948.86
2018-06-24T14:39:50.688Z,94943.56
2018-06-24T14:42:19.827Z,94950.00
2018-06-24T14:44:48.552Z,94948.63
2018-06-24T14:47:17.349Z,94942.47
2018-06-24T14:49:46.290Z,94940.88
2018-06-24T14:52:15.016Z,94939.83
2018-06-24T14:54:43.802Z,94941.16
2018-06-24T14:57:12.930Z,94923.27
2018-06-24T14:59:41.887Z,94934.73
2018-06-24T15:02:10.630Z,94931.55
2018-06-24T15:04:39.326Z,94924.07
2018-06-24T15:07:08.238Z,94921.42
2018-06-24T15:09:36.934Z,94931.32
2018-06-24T15:12:05.747Z,94930.23
2018-06-24T15:14:34.565Z,94917.39
2018-06-24T15:17:03.313Z,94920.34
2018-06-24T15:19:32.088Z,94914.19
2018-06-24T15:22:00.830Z,94907.50
2018-06-24T15:24:29.629Z,94911.80
2018-06-24T15:26:58.456Z,94905.12
2018-06-24T15:29:27.249Z,94906.70
2018-06-24T15:31:56.060Z,94911.28
2018-06-24T15:34:25.592Z,94917.41
2018-06-24T15:36:54.639Z,94903.28
2018-06-24T15:39:25.883Z,94918.23
2018-06-24T15:41:54.751Z,94905.65
2018-06-24T15:44:23.495Z,94903.23
2018-06-24T15:46:53.351Z,94896.31
2018-06-24T15:49:22.827Z,94906.20
2018-06-24T15:51:51.558Z,94903.54
2018-06-24T15:54:20.279Z,94902.98
2018-06-24T15:56:49.451Z,94913.11
2018-06-24T15:59:18.881Z,94924.58
2018-06-24T16:01:47.626Z,94922.41
2018-06-24T16:04:16.345Z,94921.62
2018-06-24T16:06:45.222Z,94914.95
2018-06-24T16:09:14.059Z,94917.11
2018-06-24T16:11:42.780Z,94921.11
2018-06-24T16:14:11.579Z,94925.08
2018-06-24T16:16:40.757Z,94925.36
2018-06-24T16:19:09.914Z,94926.73
2018-06-24T16:21:38.659Z,94932.06
2018-06-24T16:24:07.378Z,94929.38
2018-06-24T16:26:36.089Z,94932.59
2018-06-24T16:29:04.922Z,94936.28
2018-06-24T16:31:33.667Z,94944.00
2018-06-24T16:34:02.445Z,94941.58
2018-06-24T16:36:31.208Z,94941.90
2018-06-24T16:39:00.029Z,94939.17
2018-06-24T16:41:28.780Z,94942.51
2018-06-24T16:43:57.474Z,94947.37
2018-06-24T16:46:26.289Z,94948.70
2018-06-24T16:48:55.036Z,94945.23
2018-06-24T16:51:23.755Z,94939.59
2018-06-24T16:53:52.487Z,94943.86
2018-06-24T16:56:21.219Z,94950.36
2018-06-24T16:58:49.927Z,94944.38
2018-06-24T17:01:18.660Z,94944.15
2018-06-24T17:03:47.374Z,94953.25
2018-06-24T17:06:16.289Z,94952.69
2018-06-24T17:08:45.682Z,94952.57
2018-06-24T17:11:14.470Z,94956.05
2018-06-24T17:13:43.182Z,94953.17
2018-06-24T17:16:11.940Z,94954.54
2018-06-24T17:18:40.777Z,94953.77
2018-06-24T17:21:09.869Z,94958.64
2018-06-24T17:23:38.714Z,94961.95
2018-06-24T17:26:07.600Z,94960.10
2018-06-24T17:28:36.317Z,94969.66
2018-06-24T17:31:05.113Z,94967.24
2018-06-24T17:33:34.169Z,94968.02
2018-06-24T17:36:02.881Z,94973.35
2018-06-24T17:38:31.758Z,94974.36
2018-06-24T17:41:00.553Z,94978.18
2018-06-24T17:43:29.218Z,94975.73
2018-06-24T17:45:58.044Z,94976.61
2018-06-24T17:48:26.931Z,94985.13
2018-06-24T17:50:55.654Z,94989.65
2018-06-24T17:53:24.496Z,94990.21
2018-06-24T17:55:53.500Z,94984.62
2018-06-24T17:58:22.380Z,94984.70
2018-06-24T18:00:51.124Z,94987.55
2018-06-24T18:03:20.403Z,94985.14
2018-06-24T18:05:49.116Z,94988.19
2018-06-24T18:08:17.935Z,94993.72
2018-06-24T18:10:46.981Z,94997.42
2018-06-24T18:13:15.708Z,94997.75
2018-06-24T18:15:44.461Z,95002.21
2018-06-24T18:18:13.185Z,95009.37
2018-06-24T18:20:41.886Z,95005.78
2018-06-24T18:23:10.627Z,95008.25
2018-06-24T18:25:39.343Z,95008.52
2018-06-24T18:28:08.164Z,95014.89
2018-06-24T18:30:37.078Z,95013.94
2018-06-24T18:33:06.291Z,95015.27
2018-06-24T18:35:35.207Z,95018.44
2018-06-24T18:38:04.606Z,95017.81
2018-06-24T18:40:33.348Z,95017.48
2018-06-24T18:43:02.113Z,95030.67
2018-06-24T18:45:31.021Z,95032.91
2018-06-24T18:47:59.805Z,95038.58
2018-06-24T18:50:28.523Z,95039.63
2018-06-24T18:52:57.919Z,95047.52
2018-06-24T18:55:26.672Z,95040.72
2018-06-24T18:57:55.751Z,95044.34
2018-06-24T19:00:24.548Z,95044.86
2018-06-24T19:02:53.440Z,95047.91
2018-06-24T19:05:22.432Z,95046.65
2018-06-24T19:07:51.507Z,95046.88
2018-06-24T19:10:20.341Z,95049.54
2018-06-24T19:12:49.219Z,95050.86
2018-06-24T19:15:18.080Z,95046.36
2018-06-24T19:17:46.893Z,95046.03
2018-06-24T19:20:16.028Z,95045.51
2018-06-24T19:22:44.746Z,95048.09
2018-06-24T19:25:13.549Z,95048.62
2018-06-24T19:27:42.365Z,95051.73
2018-06-24T19:30:11.140Z,95053.34
2018-06-24T19:32:40.880Z,95053.23
2018-06-24T19:35:09.751Z,95053.34
2018-06-24T19:37:38.480Z,95052.53
2018-06-24T19:40:13.781Z,95051.16
2018-06-24T19:42:42.940Z,95053.81
2018-06-24T19:45:11.704Z,95056.98
2018-06-24T19:47:40.410Z,95054.28
2018-06-24T19:50:09.406Z,95055.42
2018-06-24T19:52:38.182Z,95060.39
2018-06-24T19:55:07.051Z,95060.33
2018-06-24T19:57:35.826Z,95062.17
2018-06-24T20:00:06.233Z,95056.34
2018-06-24T20:02:34.978Z,95062.64
2018-06-24T20:05:03.768Z,95066.27
2018-06-24T20:07:32.611Z,95064.66
2018-06-24T20:10:01.355Z,95064.19
2018-06-24T20:12:30.138Z,95063.33
2018-06-24T20:14:58.843Z,95063.61
2018-06-24T20:17:27.534Z,95062.23
2018-06-24T20:19:56.321Z,95063.22
2018-06-24T20:22:25.116Z,95056.41
2018-06-24T20:24:53.845Z,95054.55
2018-06-24T20:27:24.262Z,95058.41
2018-06-24T20:29:53.141Z,95056.72
2018-06-24T20:32:21.857Z,95061.69
2018-06-24T20:34:50.627Z,95048.64
2018-06-24T20:37:19.403Z,95055.58
2018-06-24T20:39:48.110Z,95051.12
2018-06-24T20:42:16.823Z,95058.95
2018-06-24T20:44:45.561Z,95054.17
2018-06-24T20:47:14.252Z,95060.17
2018-06-24T20:49:42.978Z,95058.82
2018-06-24T20:52:12.328Z,95057.67
2018-06-24T20:54:41.604Z,95060.61
2018-06-24T20:57:10.362Z,95054.38
2018-06-24T20:59:39.111Z,95054.91
2018-06-24T21:02:08.929Z,95047.76
2018-06-24T21:04:37.722Z,95053.81
2018-06-24T21:07:06.462Z,95050.41
2018-06-24T21:09:35.196Z,95048.28
2018-06-24T21:12:03.906Z,95044.81
2018-06-24T21:14:32.655Z,95040.73
2018-06-24T21:17:01.473Z,95040.06
2018-06-24T21:19:30.174Z,95045.02
2018-06-24T21:21:58.877Z,95043.27
2018-06-24T21:24:32.969Z,95036.27
2018-06-24T21:27:01.854Z,95042.25
2018-06-24T21:29:30.575Z,95044.36
2018-06-24T21:31:59.274Z,95038.13
2018-06-24T21:34:28.062Z,95042.85
2018-06-24T21:36:56.974Z,95037.23
2018-06-24T21:39:26.024Z,95045.03
2018-06-24T21:41:54.875Z,95040.68
2018-06-24T21:44:23.610Z,95036.58
2018-06-24T21:46:52.364Z,95039.23
2018-06-24T21:49:21.422Z,95035.38
2018-06-24T21:51:50.552Z,95033.97
2018-06-24T21:54:19.501Z,95035.77
2018-06-24T21:56:51.354Z,95032.77
2018-06-24T21:59:20.208Z,95035.05
2018-06-24T22:01:48.926Z,95030.41
2018-06-24T22:04:17.752Z,95038.51
2018-06-24T22:06:46.579Z,95035.83
2018-06-24T22:09:15.393Z,95037.95
2018-06-24T22:11:44.144Z,95027.18
2018-06-24T22:14:12.862Z,95032.66
2018-06-24T22:16:41.588Z,95028.03
2018-06-24T22:19:10.559Z,95028.66
2018-06-24T22:21:39.483Z,95028.44
2018-06-24T22:24:08.291Z,95030.05
2018-06-24T22:26:37.031Z,95031.16
2018-06-24T22:29:06.763Z,95031.94
2018-06-24T22:31:35.743Z,95034.66
2018-06-24T22:34:04.477Z,95031.02
2018-06-24T22:36:33.572Z,95032.38
2018-06-24T22:39:02.516Z,95027.83
2018-06-24T22:41:31.658Z,95028.09
2018-06-24T22:44:00.383Z,95036.53
2018-06-24T22:46:29.116Z,95030.77
2018-06-24T22:48:57.834Z,95026.42
2018-06-24T22:51:26.591Z,95024.40
2018-06-24T22:53:55.315Z,95024.70
2018-06-24T22:56:24.094Z,95023.66
2018-06-24T22:59:04.259Z,95025.80
2018-06-24T23:01:33.619Z,95027.97
2018-06-24T23:04:02.305Z,95027.09
2018-06-24T23:06:31.044Z,95030.03
2018-06-24T23:08:59.823Z,95032.09
2018-06-24T23:11:28.527Z,95026.64
2018-06-24T23:13:57.283Z,95028.55
2018-06-24T23:16:26.074Z,95020.33
2018-06-24T23:18:55.117Z,95025.39
2018-06-24T23:21:23.840Z,95024.73
2018-06-24T23:23:52.653Z,95021.00
2018-06-24T23:26:21.726Z,95022.83
2018-06-24T23:28:50.464Z,95026.51
2018-06-24T23:31:19.342Z,95026.36
2018-06-24T23:33:48.577Z,95029.30
2018-06-24T23:36:17.300Z,95029.40
2018-06-24T23:38:46.031Z,95030.50
2018-06-24T23:41:14.735Z,95026.89
2018-06-24T23:43:43.541Z,95019.02
2018-06-24T23:46:12.308Z,95020.72
2018-06-24T23:48:41.143Z,95013.27
2018-06-24T23:51:09.856Z,95016.98
2018-06-24T23:53:38.553Z,95016.22
2018-06-24T23:56:07.317Z,95012.09
2018-06-24T23:58:36.061Z,95013.71
